createdAt,value
2017-05-18T13:13:13.202Z,28.00
2017-05-18T13:14:11.453Z,29.00
2017-05-18T13:15:08.956Z,29.00
2017-05-18T13:16:06.775Z,27.00
2017-05-18T13:17:04.298Z,25.00
2017-05-18T13:18:01.926Z,26.00
2017-05-18T13:18:59.601Z,26.00
2017-05-18T13:19:57.034Z,27.00
2017-05-18T13:20:54.477Z,27.00
2017-05-18T13:21:51.850Z,28.00
2017-05-18T13:22:49.303Z,28.00
2017-05-18T13:23:46.816Z,28.00
2017-05-18T13:24:44.220Z,32.00
2017-05-18T13:25:41.647Z,34.00
2017-05-18T13:26:39.026Z,35.00
2017-05-18T13:27:36.397Z,48.00
2017-05-18T13:28:33.981Z,25.00
2017-05-18T13:29:31.600Z,29.00
2017-05-18T13:30:29.589Z,44.00
2017-05-18T13:31:26.957Z,36.00
2017-05-18T13:32:24.308Z,33.00
2017-05-18T13:33:21.953Z,40.00
2017-05-18T13:34:19.367Z,45.00
2017-05-18T13:35:16.772Z,27.00
2017-05-18T13:36:14.117Z,28.00
2017-05-18T13:37:11.462Z,28.00
2017-05-18T13:38:08.828Z,29.00
2017-05-18T13:39:06.204Z,54.00
2017-05-18T13:40:03.648Z,31.00
2017-05-18T13:41:01.165Z,30.00
2017-05-18T13:41:58.546Z,35.00
2017-05-18T13:42:55.895Z,35.00
2017-05-18T13:43:53.423Z,36.00
2017-05-18T13:44:50.833Z,36.00
2017-05-18T13:45:48.231Z,36.00
2017-05-18T13:46:45.662Z,37.00
2017-05-18T13:47:44.182Z,38.00
2017-05-18T13:48:41.545Z,46.00
2017-05-18T13:49:38.934Z,40.00
2017-05-18T13:50:36.299Z,51.00
2017-05-18T13:51:33.708Z,58.00
2017-05-18T13:52:31.074Z,48.00
2017-05-18T13:53:28.477Z,48.00
2017-05-18T13:54:25.849Z,50.00
2017-05-18T13:55:23.225Z,50.00
2017-05-18T13:56:20.613Z,54.00
2017-05-18T13:57:17.978Z,62.00
2017-05-18T13:58:15.730Z,112.00
2017-05-18T13:59:13.100Z,105.00
2017-05-18T14:00:10.522Z,93.00
2017-05-18T14:01:07.910Z,93.00
2017-05-18T14:02:05.298Z,90.00
2017-05-18T14:03:02.695Z,106.00
2017-05-18T14:04:00.068Z,97.00
2017-05-18T14:04:57.467Z,95.00
2017-05-18T14:05:54.852Z,80.00
2017-05-18T14:06:52.202Z,109.00
2017-05-18T14:07:49.582Z,91.00
2017-05-18T14:08:46.952Z,79.00
2017-05-18T14:09:44.301Z,71.00
2017-05-18T14:10:41.671Z,89.00
2017-05-18T14:11:39.082Z,80.00
2017-05-18T14:12:36.445Z,86.00
2017-05-18T14:13:33.888Z,85.00
2017-05-18T14:14:31.265Z,84.00
2017-05-18T14:15:28.659Z,77.00
2017-05-18T14:16:26.039Z,80.00
2017-05-18T14:17:23.410Z,112.00
2017-05-18T14:18:20.812Z,81.00
2017-05-18T14:19:18.201Z,88.00
2017-05-18T14:20:15.569Z,95.00
2017-05-18T14:21:12.952Z,81.00
2017-05-18T14:22:10.327Z,94.00
2017-05-18T14:23:07.664Z,112.00
2017-05-18T14:24:05.026Z,82.00
2017-05-18T14:25:02.425Z,102.00
2017-05-18T14:25:59.782Z,82.00
2017-05-18T14:26:57.163Z,79.00
2017-05-18T14:27:54.574Z,92.00
2017-05-18T14:28:51.948Z,68.00
2017-05-18T14:29:49.353Z,82.00
2017-05-18T14:30:46.761Z,77.00
2017-05-18T14:31:44.158Z,109.00
2017-05-18T14:32:41.537Z,71.00
2017-05-18T14:33:38.918Z,83.00
2017-05-18T14:34:36.258Z,99.00
2017-05-18T14:35:33.650Z,97.00
2017-05-18T14:36:31.026Z,87.00
2017-05-18T14:37:28.393Z,90.00
2017-05-18T14:38:25.756Z,110.00
2017-05-18T14:39:23.125Z,102.00
2017-05-18T14:40:20.540Z,95.00
2017-05-18T14:41:17.906Z,120.00
2017-05-18T14:42:15.250Z,202.00
2017-05-18T14:43:12.621Z,166.00
2017-05-18T14:44:09.984Z,284.00
2017-05-18T14:45:07.371Z,166.00
2017-05-18T14:46:04.727Z,154.00
2017-05-18T14:47:02.071Z,146.00
2017-05-18T14:47:59.416Z,148.00
2017-05-18T14:48:56.757Z,141.00
2017-05-18T14:49:54.109Z,255.00
2017-05-18T14:50:51.498Z,278.00
2017-05-18T14:51:48.866Z,247.00
2017-05-18T14:52:46.241Z,140.00
2017-05-18T14:53:43.611Z,138.00
2017-05-18T14:54:40.981Z,138.00
2017-05-18T14:55:38.353Z,160.00
2017-05-18T14:56:35.762Z,163.00
2017-05-18T14:57:33.145Z,197.00
2017-05-18T14:58:30.505Z,301.00
2017-05-18T14:59:27.882Z,374.00
2017-05-18T15:00:25.260Z,374.00
2017-05-18T15:01:22.634Z,369.00
2017-05-18T15:02:20.035Z,391.00
2017-05-18T15:03:17.832Z,341.00
2017-05-18T15:04:15.196Z,377.00
2017-05-18T15:05:12.595Z,392.00
2017-05-18T15:06:09.961Z,398.00
2017-05-18T15:07:07.453Z,357.00
2017-05-18T15:08:04.889Z,386.00
2017-05-18T15:09:02.278Z,384.00
2017-05-18T15:09:59.633Z,401.00
2017-05-18T15:10:57.042Z,316.00
2017-05-18T15:11:54.425Z,352.00
2017-05-18T15:12:51.800Z,323.00
2017-05-18T15:13:49.229Z,360.00
2017-05-18T15:14:46.691Z,197.00
2017-05-18T15:15:44.108Z,302.00
2017-05-18T15:16:41.479Z,327.00
2017-05-18T15:17:38.846Z,204.00
2017-05-18T15:18:36.224Z,227.00
2017-05-18T15:19:33.579Z,193.00
2017-05-18T15:20:30.967Z,293.00
2017-05-18T15:21:28.339Z,300.00
2017-05-18T15:22:25.700Z,265.00
2017-05-18T15:23:23.063Z,322.00
2017-05-18T15:24:20.444Z,245.00
2017-05-18T15:25:17.789Z,331.00
2017-05-18T15:26:15.154Z,388.00
2017-05-18T15:27:12.526Z,321.00
2017-05-18T15:28:09.906Z,114.00
2017-05-18T15:29:07.296Z,132.00
2017-05-18T15:30:04.668Z,150.00
2017-05-18T15:31:02.015Z,114.00
2017-05-18T15:31:59.402Z,133.00
2017-05-18T15:32:56.768Z,135.00
2017-05-18T15:33:54.187Z,174.00
2017-05-18T15:34:51.563Z,213.00
2017-05-18T15:35:48.937Z,138.00
2017-05-18T15:36:46.299Z,149.00
2017-05-18T15:37:43.692Z,175.00
2017-05-18T15:38:41.056Z,143.00
2017-05-18T15:39:38.456Z,242.00
2017-05-18T15:40:35.827Z,258.00
2017-05-18T15:41:33.192Z,277.00
2017-05-18T15:42:30.552Z,331.00
2017-05-18T15:43:27.920Z,330.00
2017-05-18T15:44:25.309Z,258.00
2017-05-18T15:45:22.680Z,342.00
2017-05-18T15:46:20.054Z,356.00
2017-05-18T15:47:17.420Z,382.00
